• Join FlightAware (Why Join?)
  • Login
  • US Flag 
09:23AM EDT


 

Airport Tracker/Info


-or-


 

Live Flight TrackerFlight Track Log ✈ EJA834 ✈ 06-Jul-2013 ✈ KJFK - KLBE

Flight Track Log - Related Links

Times and Time Zones

All times are in EDT time to prevent confusion due to time zone crossing. See the EJA834 flight status page for this flight to view local times or setup timezone preferences in your user account.

Time Position Orientation Groundspeed Altitude Reporting Facility
EDT Latitude Longitude Course Direction KTS MPH feet Rate Location/Type
07:15PM 40.6000 -73.8000 163° South 231 266 2,200  Level New York TRACON
07:17PM 40.5072 -73.7628 163° South 181 208 7,200 2,880 Climbing New York Center
07:18PM 40.5656 -73.6722 50° Northeast 225 259 10,400 2,760 Climbing New York Center
07:19PM 40.6175 -73.5925 49° Northeast 295 339 12,700 2,460 Climbing New York Center
07:20PM 40.7100 -73.5553 17° North 327 376 15,300 2,040 Climbing New York Center
07:21PM 40.7914 -73.5531 North 316 364 16,900 840 Climbing New York Center
07:22PM 40.8864 -73.5872 345° North 331 381 17,000 720 Climbing New York Center
07:23PM 40.9764 -73.6625 328° Northwest 341 392 18,400 1,500 Climbing New York Center
07:24PM 41.0517 -73.7261 327° Northwest 347 399 20,000 1,680 Climbing New York Center
07:25PM 41.1164 -73.8089 316° Northwest 347 399 21,900 960 Climbing New York Center
07:26PM 41.1172 -73.9300 271° West 304 350 22,000  Climbing New York Center
07:27PM 41.1011 -74.0642 261° West 324 373 22,000  Level New York Center
07:28PM 41.0783 -74.2061 258° West 348 400 22,000  Level New York Center
07:29PM 41.0597 -74.3400 260° West 359 413 22,000  Level New York Center
07:30PM 41.0411 -74.4683 259° West 366 421 22,000  Level New York Center
07:31PM 41.0203 -74.5992 258° West 371 427 22,000  Level New York Center
07:32PM 41.0033 -74.7414 261° West 371 427 22,000  Level New York Center
07:33PM 40.9842 -74.8722 259° West 371 427 22,000  Level New York Center
07:34PM 40.9586 -75.0053 256° West 371 427 22,000  Level New York Center
07:35PM 40.9247 -75.1350 251° West 371 427 22,000  Level New York Center
07:36PM 40.8975 -75.2511 253° West 378 435 22,000  Level New York Center
07:37PM 40.8694 -75.3811 254° West 378 435 22,000  Level New York Center
07:38PM 40.8414 -75.5136 254° West 378 435 22,000  Level New York Center
07:39PM 40.8089 -75.6458 252° West 378 435 22,000  Level New York Center
07:40PM 40.7786 -75.7750 253° West 378 435 22,000  Level New York Center
07:41PM 40.7481 -75.8989 252° West 372 428 22,000  Level New York Center
07:42PM 40.7175 -76.0253 252° West 372 428 22,000  Level New York Center
07:43PM 40.6869 -76.1544 253° West 372 428 22,000  Level New York Center
07:44PM 40.6703 -76.2872 261° West 372 428 22,000  Level New York Center
07:45PM 40.6931 -76.4231 283° West 367 422 22,000  Level New York Center
07:46PM 40.7133 -76.5617 281° West 372 428 22,000  Level New York Center
07:47PM 40.7275 -76.6997 278° West 377 434 22,000  Level New York Center
07:48PM 40.7081 -76.8378 260° West 367 422 22,000  Level New York Center
07:49PM 40.6883 -76.9731 259° West 377 434 22,000  Level New York Center
07:50PM 40.6669 -77.1050 258° West 382 440 22,000  Level New York Center
07:51PM 40.6450 -77.2400 258° West 382 440 22,000  Level New York Center
07:52PM 40.6244 -77.3856 260° West 382 440 22,000  Level New York Center
07:53PM 40.6003 -77.5172 256° West 382 440 22,000  Level New York Center
07:55PM 40.5506 -77.8150 258° West 377 434 22,000  Level Cleveland Center
07:56PM 40.5267 -77.9469 257° West 372 428 22,000 -660 Level Cleveland Center
07:57PM 40.5044 -78.0764 257° West 372 428 20,700 -1,680 Descending Cleveland Center
07:58PM 40.4825 -78.2192 259° West 372 428 18,700 -1,860 Descending Cleveland Center
07:59PM 40.4678 -78.3125 258° West 346 398 17,500 -1,800 Descending Cleveland Center
08:00PM 40.4453 -78.4414 257° West 331 381 15,400 -1,920 Descending Cleveland Center
08:01PM 40.4283 -78.5511 259° West 319 367 13,500 -1,980 Descending Cleveland Center
08:02PM 40.4056 -78.6717 256° West 309 356 11,500 -1,920 Descending Cleveland Center
08:03PM 40.3883 -78.7703 257° West 279 321 9,600 -2,040 Descending Cleveland Center
08:04PM 40.3731 -78.8633 258° West 257 296 7,500 -2,100 Descending Cleveland Center
08:05PM 40.3558 -78.9619 257° West 260 299 5,400 -1,440 Descending Cleveland Center
08:06PM 40.3383 -79.0550 256° West 264 304 4,600 -420 Descending Cleveland Center
08:07PM 40.3292 -79.1506 263° West 269 310 4,600 -540 Level Cleveland Center
08:08PM 40.3322 -79.2403 273° West 251 289 3,600 -960 Descending Cleveland Center
08:09PM 40.3311 -79.3247 269° West 202 232 2,700 -780 Descending Cleveland Center
08:10PM 40.3128 -79.3606 236° Southwest 141 162 2,100 -600 Descending Cleveland Center
08:12PM 40.2667 -79.4000 270° West  Level FlightAware Approximate
08:19PM 40.2746 -79.4068 270° West  Level Estimated
08:20PM 40.2746 -79.4068 270° West  Level Estimated
08:21PM 40.2746 -79.4068 270° West  Level Estimated
08:22PM 40.2746 -79.4068 270° West  Level Estimated
08:23PM 40.2746 -79.4068 270° West  Level Estimated
08:24PM 40.2746 -79.4068 270° West  Level Estimated
08:25PM 40.2746 -79.4068 270° West  Level Estimated
08:26PM 40.2746 -79.4068 270° West  Level Estimated